Time;durP1;ratioP1;P1;durP2;ratioP2;P2;SDS_P1;SDS_P2;PMS_P1;PMS_P2;Temp;Humidity;BMP_temperature;BMP_pressure;BME280_temperature;BME280_humidity;BME280_pressure;Samples;Min_cycle;Max_cycle;Signal;HPM_P1;HPM_P2
2023/10/22 00:00:43;;;;;;;1.13;0.60;;;12.60;90.60;;;;;;4983765;28;20034;-64
2023/10/22 00:03:09;;;;;;;1.95;0.80;;;12.60;90.60;;;;;;4986054;28;20147;-64
2023/10/22 00:05:34;;;;;;;0.70;0.70;;;12.60;90.60;;;;;;4986555;28;20450;-64
2023/10/22 00:08:00;;;;;;;1.30;0.63;;;12.60;90.60;;;;;;4986836;28;20049;-64
2023/10/22 00:10:26;;;;;;;1.63;0.77;;;12.60;90.60;;;;;;4983155;28;20030;-64
2023/10/22 00:12:51;;;;;;;1.15;0.80;;;12.50;90.60;;;;;;4986105;28;20035;-64
2023/10/22 00:15:17;;;;;;;0.85;0.70;;;12.50;90.60;;;;;;4985848;28;20406;-63
2023/10/22 00:17:42;;;;;;;0.82;0.70;;;12.40;90.60;;;;;;4986151;28;20093;-63
2023/10/22 00:20:09;;;;;;;1.48;0.60;;;12.40;90.60;;;;;;4985219;28;20049;-63
2023/10/22 00:22:35;;;;;;;2.38;0.70;;;12.40;90.70;;;;;;4984490;28;20045;-64
2023/10/22 00:25:00;;;;;;;1.08;0.60;;;12.40;90.80;;;;;;4985447;28;20039;-63
2023/10/22 00:27:26;;;;;;;1.63;0.60;;;12.30;90.80;;;;;;4985733;28;20038;-64
2023/10/22 00:29:52;;;;;;;2.33;0.60;;;12.30;90.80;;;;;;4985290;28;20156;-64
2023/10/22 00:32:18;;;;;;;1.85;0.50;;;12.30;90.90;;;;;;4985744;28;20114;-63
2023/10/22 00:34:43;;;;;;;0.47;0.47;;;12.30;90.90;;;;;;4984930;28;20197;-64
2023/10/22 00:37:10;;;;;;;1.10;0.70;;;12.20;90.90;;;;;;4985321;28;20045;-64
2023/10/22 00:39:36;;;;;;;1.33;0.65;;;12.20;90.90;;;;;;4985250;28;20049;-64
2023/10/22 00:42:02;;;;;;;0.82;0.70;;;12.20;90.90;;;;;;4985156;28;20046;-64
2023/10/22 00:44:28;;;;;;;1.13;0.52;;;12.20;90.90;;;;;;4984675;28;20503;-64
2023/10/22 00:46:54;;;;;;;0.65;0.50;;;12.20;90.90;;;;;;4986002;28;20045;-64
2023/10/22 00:49:20;;;;;;;1.77;0.30;;;12.10;90.90;;;;;;4984883;28;20109;-64
2023/10/22 00:51:47;;;;;;;0.70;0.40;;;12.10;91.00;;;;;;4985501;28;20490;-64
2023/10/22 00:54:14;;;;;;;1.58;0.40;;;12.10;91.00;;;;;;4985054;28;20034;-64
2023/10/22 00:56:41;;;;;;;1.00;0.50;;;12.10;91.00;;;;;;4984816;28;20037;-64
2023/10/22 00:59:07;;;;;;;0.30;0.30;;;12.20;91.00;;;;;;4984261;28;20049;-64
2023/10/22 01:01:33;;;;;;;2.35;0.50;;;12.10;91.00;;;;;;4982783;28;20082;-64
2023/10/22 01:03:59;;;;;;;0.50;0.32;;;12.10;91.00;;;;;;4989265;28;20435;-63
2023/10/22 01:06:25;;;;;;;0.40;0.30;;;12.20;91.00;;;;;;4988593;28;20040;-64
2023/10/22 01:08:53;;;;;;;0.50;0.30;;;12.20;90.90;;;;;;4989461;28;20042;-64
2023/10/22 01:11:19;;;;;;;1.48;0.30;;;12.20;90.90;;;;;;4987304;28;20049;-64
2023/10/22 01:13:45;;;;;;;0.73;0.30;;;12.20;90.90;;;;;;4989659;28;20026;-64
2023/10/22 01:16:10;;;;;;;0.95;0.30;;;12.20;90.90;;;;;;4988682;28;20042;-64
2023/10/22 01:18:36;;;;;;;1.85;0.30;;;12.20;90.80;;;;;;4987790;28;20034;-62
2023/10/22 01:21:05;;;;;;;0.90;0.35;;;12.20;90.80;;;;;;4987803;28;20671;-64
2023/10/22 01:23:38;;;;;;;0.28;0.20;;;12.20;90.70;;;;;;4987802;28;20120;-64
2023/10/22 01:26:06;;;;;;;0.25;0.25;;;12.10;90.70;;;;;;4988735;28;20401;-64
2023/10/22 01:28:33;;;;;;;0.45;0.30;;;12.10;90.70;;;;;;4987579;28;20031;-64
2023/10/22 01:30:58;;;;;;;1.77;0.35;;;12.20;90.70;;;;;;4988311;28;20093;-64
2023/10/22 01:33:24;;;;;;;0.28;0.20;;;12.10;90.70;;;;;;4988554;28;20064;-64
2023/10/22 01:35:50;;;;;;;0.93;0.40;;;12.10;90.60;;;;;;4987957;28;20046;-64
2023/10/22 01:38:15;;;;;;;1.33;0.40;;;12.10;90.60;;;;;;4988731;28;20046;-64
2023/10/22 01:40:41;;;;;;;1.42;0.28;;;12.10;90.60;;;;;;4987853;28;20022;-64
2023/10/22 01:43:06;;;;;;;2.05;0.32;;;12.10;90.60;;;;;;4987822;28;20038;-64
2023/10/22 01:45:32;;;;;;;0.45;0.25;;;12.10;91.00;;;;;;4987182;28;20150;-63
2023/10/22 01:47:57;;;;;;;0.68;0.25;;;12.10;90.60;;;;;;4988771;28;20525;-64
2023/10/22 01:50:23;;;;;;;0.20;0.20;;;12.10;90.60;;;;;;4988458;28;20037;-64
2023/10/22 01:52:49;;;;;;;0.80;0.20;;;12.10;90.50;;;;;;4986855;28;20165;-64
2023/10/22 01:55:15;;;;;;;1.45;0.30;;;12.10;90.90;;;;;;4987779;28;20103;-64
2023/10/22 01:57:40;;;;;;;0.50;0.30;;;12.10;90.50;;;;;;4987265;28;20085;-64
2023/10/22 02:00:09;;;;;;;0.43;0.30;;;12.10;90.50;;;;;;4986876;28;20554;-64
2023/10/22 02:02:36;;;;;;;0.82;0.30;;;12.10;90.50;;;;;;4987022;28;20057;-64
2023/10/22 02:05:01;;;;;;;1.70;0.20;;;12.10;90.50;;;;;;4987755;28;20073;-64
2023/10/22 02:07:28;;;;;;;0.20;0.20;;;12.10;90.50;;;;;;4987826;28;20305;-64
2023/10/22 02:09:54;;;;;;;0.30;0.20;;;12.10;90.50;;;;;;4988263;28;20400;-64
2023/10/22 02:12:29;;;;;;;0.65;0.20;;;12.10;90.50;;;;;;4984909;28;20053;-63
2023/10/22 02:14:55;;;;;;;0.52;0.20;;;12.10;90.40;;;;;;4987414;28;20053;-63
2023/10/22 02:17:21;;;;;;;1.35;0.35;;;12.10;90.40;;;;;;4987323;28;20422;-64
2023/10/22 02:19:47;;;;;;;1.65;0.30;;;12.00;90.40;;;;;;4988191;28;20498;-64
2023/10/22 02:22:12;;;;;;;0.80;0.30;;;12.10;90.50;;;;;;4987957;28;20046;-63
2023/10/22 02:24:39;;;;;;;0.47;0.20;;;12.00;90.40;;;;;;4986626;28;20030;-64
2023/10/22 02:27:05;;;;;;;0.88;0.20;;;12.00;90.40;;;;;;4987945;28;20125;-64
2023/10/22 02:29:31;;;;;;;0.20;0.20;;;12.00;90.40;;;;;;4987081;28;20134;-64
2023/10/22 02:31:56;;;;;;;0.82;0.25;;;12.00;90.40;;;;;;4987495;28;20138;-64
2023/10/22 02:34:22;;;;;;;0.40;0.20;;;12.00;90.50;;;;;;4986991;28;20042;-64
2023/10/22 02:36:47;;;;;;;0.70;0.28;;;12.00;90.50;;;;;;4987022;28;20310;-64
2023/10/22 02:39:13;;;;;;;0.22;0.20;;;12.00;90.50;;;;;;4987525;28;20077;-64
2023/10/22 02:41:39;;;;;;;1.25;0.20;;;12.00;90.50;;;;;;4987255;28;20392;-64
2023/10/22 02:44:04;;;;;;;1.77;0.28;;;12.00;90.50;;;;;;4986939;28;20674;-64
2023/10/22 02:46:30;;;;;;;0.68;0.20;;;12.00;90.50;;;;;;4986699;28;20033;-64
2023/10/22 02:48:58;;;;;;;0.57;0.25;;;11.90;90.50;;;;;;4987671;28;20035;-64
2023/10/22 02:51:23;;;;;;;0.20;0.20;;;11.90;90.60;;;;;;4986676;28;20560;-64
2023/10/22 02:53:49;;;;;;;1.00;0.45;;;11.90;90.60;;;;;;4986897;28;20035;-64
2023/10/22 02:56:15;;;;;;;0.98;0.40;;;11.90;90.60;;;;;;4986304;28;20042;-64
2023/10/22 02:58:41;;;;;;;0.50;0.30;;;11.90;90.60;;;;;;4985196;28;20061;-64
2023/10/22 03:01:08;;;;;;;1.08;0.40;;;12.00;90.60;;;;;;4985242;28;20113;-64
2023/10/22 03:03:40;;;;;;;0.45;0.30;;;12.00;90.60;;;;;;4986620;28;20050;-62
2023/10/22 03:06:10;;;;;;;0.40;0.30;;;12.00;90.60;;;;;;4986386;28;20046;-64
2023/10/22 03:08:37;;;;;;;0.63;0.40;;;12.00;90.60;;;;;;4985745;28;20037;-64
2023/10/22 03:11:04;;;;;;;1.05;0.30;;;12.00;90.60;;;;;;4982999;28;20129;-64
2023/10/22 03:13:30;;;;;;;1.20;0.60;;;11.90;90.60;;;;;;4985842;28;20118;-64
2023/10/22 03:15:57;;;;;;;0.68;0.50;;;12.00;90.60;;;;;;4987049;28;20038;-64
2023/10/22 03:18:24;;;;;;;0.85;0.40;;;12.00;90.60;;;;;;4986613;28;20026;-64
2023/10/22 03:20:52;;;;;;;0.50;0.40;;;11.90;90.50;;;;;;4986022;28;20113;-64
2023/10/22 03:23:18;;;;;;;0.40;0.30;;;12.00;90.50;;;;;;4985756;28;20057;-64
2023/10/22 03:25:43;;;;;;;0.32;0.30;;;11.90;90.50;;;;;;4985984;28;20046;-63
2023/10/22 03:28:10;;;;;;;2.67;0.40;;;11.90;90.40;;;;;;4986743;28;20819;-64
2023/10/22 03:30:38;;;;;;;0.50;0.40;;;11.90;90.30;;;;;;4985839;28;20100;-63
2023/10/22 03:33:04;;;;;;;0.50;0.30;;;11.90;90.20;;;;;;4985997;28;20124;-64
2023/10/22 03:35:31;;;;;;;1.60;0.40;;;12.00;90.10;;;;;;4985784;28;20061;-64
2023/10/22 03:37:58;;;;;;;0.43;0.30;;;11.90;90.00;;;;;;4986006;28;20046;-63
2023/10/22 03:40:24;;;;;;;1.48;0.40;;;11.80;89.90;;;;;;4985814;28;20041;-64
2023/10/22 03:42:49;;;;;;;0.70;0.40;;;11.70;89.90;;;;;;4985415;28;20038;-64
2023/10/22 03:45:15;;;;;;;1.25;0.50;;;11.70;90.00;;;;;;4985956;28;20055;-64
2023/10/22 03:47:40;;;;;;;1.40;0.60;;;11.60;90.00;;;;;;4986305;28;20084;-64
2023/10/22 03:50:07;;;;;;;1.83;0.60;;;11.60;89.90;;;;;;4985820;28;20406;-64
2023/10/22 03:52:32;;;;;;;1.15;0.60;;;11.50;89.90;;;;;;4985455;28;20026;-64
2023/10/22 03:54:58;;;;;;;2.08;0.40;;;11.50;90.40;;;;;;4985685;28;20034;-64
2023/10/22 03:57:23;;;;;;;1.60;0.50;;;11.40;90.10;;;;;;4986258;28;20560;-64
2023/10/22 03:59:49;;;;;;;0.50;0.50;;;11.40;90.10;;;;;;4985190;28;20453;-64
2023/10/22 04:02:15;;;;;;;1.38;0.40;;;11.30;90.00;;;;;;4985509;28;20034;-64
2023/10/22 04:04:40;;;;;;;1.10;0.52;;;11.30;90.00;;;;;;4984882;28;20038;-64
2023/10/22 04:07:06;;;;;;;1.42;0.50;;;11.30;89.90;;;;;;4985462;28;20038;-64
2023/10/22 04:09:32;;;;;;;1.10;0.38;;;11.20;89.90;;;;;;4985219;28;20371;-64
2023/10/22 04:11:58;;;;;;;4.10;0.57;;;11.10;89.90;;;;;;4982394;28;20576;-64
2023/10/22 04:14:23;;;;;;;1.38;0.50;;;11.10;90.00;;;;;;4983958;28;20038;-64
2023/10/22 04:16:50;;;;;;;3.20;0.80;;;11.00;90.00;;;;;;4985414;28;20038;-64
2023/10/22 04:19:15;;;;;;;0.70;0.70;;;10.90;90.00;;;;;;4984891;28;20042;-64
2023/10/22 04:21:41;;;;;;;1.95;0.82;;;10.80;90.10;;;;;;4985865;28;20035;-64
2023/10/22 04:24:07;;;;;;;2.10;0.68;;;10.70;90.20;;;;;;4985110;28;20100;-64
2023/10/22 04:26:33;;;;;;;0.70;0.57;;;10.60;90.40;;;;;;4984735;28;20031;-64
2023/10/22 04:28:58;;;;;;;1.15;0.60;;;10.40;90.40;;;;;;4985892;28;20039;-64
2023/10/22 04:31:24;;;;;;;1.27;0.65;;;10.30;90.60;;;;;;4985237;28;20045;-64
2023/10/22 04:33:49;;;;;;;0.60;0.60;;;10.30;90.70;;;;;;4984428;28;20166;-64
2023/10/22 04:36:16;;;;;;;0.52;0.52;;;10.20;90.80;;;;;;4985712;28;20380;-64
2023/10/22 04:38:41;;;;;;;0.88;0.77;;;10.20;90.90;;;;;;4988892;28;20113;-64
2023/10/22 04:41:13;;;;;;;1.23;0.90;;;10.20;90.90;;;;;;4988868;28;20042;-64
2023/10/22 04:43:39;;;;;;;1.35;0.75;;;10.20;90.80;;;;;;4988276;28;20607;-64
2023/10/22 04:46:05;;;;;;;1.08;0.98;;;10.20;90.60;;;;;;4989871;28;20034;-64
2023/10/22 04:48:31;;;;;;;1.27;1.17;;;10.20;90.50;;;;;;4987464;28;20402;-64
2023/10/22 04:50:59;;;;;;;1.65;0.80;;;10.20;90.40;;;;;;4989517;28;20110;-64
2023/10/22 04:53:25;;;;;;;1.77;0.60;;;10.20;90.40;;;;;;4989011;28;20582;-64
2023/10/22 04:55:55;;;;;;;2.78;0.70;;;10.20;90.50;;;;;;4985560;28;20039;-64
2023/10/22 04:58:21;;;;;;;1.40;0.60;;;10.20;90.50;;;;;;4988921;28;20038;-64
2023/10/22 05:00:47;;;;;;;1.13;0.60;;;10.20;90.40;;;;;;4986959;28;20042;-64
2023/10/22 05:03:13;;;;;;;1.13;0.70;;;10.20;90.40;;;;;;4988197;28;20038;-64
2023/10/22 05:05:38;;;;;;;1.67;1.08;;;10.20;90.30;;;;;;4987898;28;20065;-64
2023/10/22 05:08:05;;;;;;;1.95;1.55;;;10.20;90.20;;;;;;4989391;28;20084;-64
2023/10/22 05:10:38;;;;;;;1.73;1.20;;;10.20;90.00;;;;;;4986093;28;20121;-64
2023/10/22 05:13:04;;;;;;;0.90;0.90;;;10.10;89.90;;;;;;4989116;28;20042;-64
2023/10/22 05:15:29;;;;;;;0.95;0.80;;;10.00;89.90;;;;;;4988406;28;20031;-64
2023/10/22 05:17:57;;;;;;;4.15;1.00;;;10.00;89.90;;;;;;4988601;28;20089;-64
2023/10/22 05:20:23;;;;;;;1.45;0.82;;;10.00;90.00;;;;;;4988183;28;20034;-64
2023/10/22 05:22:48;;;;;;;0.70;0.70;;;10.00;90.10;;;;;;4987772;28;20100;-64
2023/10/22 05:25:14;;;;;;;3.17;0.90;;;9.90;90.10;;;;;;4986866;28;20042;-64
2023/10/22 05:27:40;;;;;;;0.80;0.80;;;9.90;90.20;;;;;;4987053;28;20546;-64
2023/10/22 05:30:06;;;;;;;1.17;1.08;;;9.90;90.30;;;;;;4988287;28;20082;-64
2023/10/22 05:32:32;;;;;;;1.60;1.10;;;9.90;90.30;;;;;;4988327;28;20030;-64
2023/10/22 05:34:57;;;;;;;1.10;0.90;;;9.80;90.20;;;;;;4989259;28;20449;-64
2023/10/22 05:37:23;;;;;;;3.33;0.70;;;9.90;90.10;;;;;;4988780;28;20039;-64
2023/10/22 05:39:49;;;;;;;0.70;0.70;;;9.80;90.10;;;;;;4989241;28;20030;-64
2023/10/22 05:42:14;;;;;;;0.70;0.70;;;9.80;90.20;;;;;;4989434;28;20042;-64
2023/10/22 05:44:40;;;;;;;1.05;0.70;;;9.70;90.20;;;;;;4988303;28;20029;-64
2023/10/22 05:47:05;;;;;;;1.58;0.73;;;9.70;90.30;;;;;;4988581;28;20031;-64
2023/10/22 05:49:31;;;;;;;1.40;1.17;;;9.70;90.30;;;;;;4988362;28;20513;-64
2023/10/22 05:51:57;;;;;;;1.50;1.20;;;9.70;90.40;;;;;;4989383;28;20034;-64
2023/10/22 05:54:22;;;;;;;1.45;1.30;;;9.70;90.30;;;;;;4988704;28;20057;-62
2023/10/22 05:56:48;;;;;;;1.60;1.33;;;9.60;90.30;;;;;;4988119;28;20058;-64
2023/10/22 05:59:13;;;;;;;1.40;1.30;;;9.70;90.20;;;;;;4987544;28;20037;-63
2023/10/22 06:01:41;;;;;;;5.95;1.50;;;9.70;90.00;;;;;;4988138;28;20089;-64
2023/10/22 06:04:10;;;;;;;1.55;1.30;;;9.60;89.80;;;;;;4988441;28;20495;-62
2023/10/22 06:06:36;;;;;;;1.17;1.08;;;9.60;89.80;;;;;;4987646;28;20053;-63
2023/10/22 06:09:01;;;;;;;1.23;1.13;;;9.60;89.90;;;;;;4972167;28;20502;-64
2023/10/22 06:11:27;;;;;;;1.73;1.38;;;9.50;90.00;;;;;;4975732;28;20034;-63
2023/10/22 06:13:52;;;;;;;1.55;1.30;;;9.50;90.20;;;;;;4968813;28;20361;-64
2023/10/22 06:16:18;;;;;;;1.35;1.25;;;9.50;90.20;;;;;;4972625;28;20501;-64
2023/10/22 06:18:45;;;;;;;1.27;1.10;;;9.50;90.20;;;;;;4979090;28;20038;-64
2023/10/22 06:21:12;;;;;;;2.45;1.58;;;9.50;90.20;;;;;;4972249;28;20365;-64
2023/10/22 06:23:38;;;;;;;1.83;1.33;;;9.50;90.30;;;;;;4978661;28;20121;-64
2023/10/22 06:26:04;;;;;;;3.55;2.03;;;9.50;90.30;;;;;;4975117;28;20041;-64
2023/10/22 06:28:30;;;;;;;2.72;1.73;;;9.50;90.80;;;;;;4974590;28;20092;-64
2023/10/22 06:31:09;;;;;;;3.08;2.40;;;9.50;90.40;;;;;;4979115;28;20468;-63
2023/10/22 06:33:35;;;;;;;4.15;2.65;;;9.50;90.50;;;;;;4981117;28;20085;-64
2023/10/22 06:36:11;;;;;;;4.05;2.55;;;9.60;90.60;;;;;;4976588;28;20137;-64
2023/10/22 06:38:37;;;;;;;6.18;2.38;;;9.50;90.70;;;;;;4977307;28;20183;-64
2023/10/22 06:41:03;;;;;;;4.07;2.25;;;9.60;90.60;;;;;;4977290;28;20125;-63
2023/10/22 06:43:28;;;;;;;2.78;1.80;;;9.60;90.80;;;;;;4977166;28;20049;-64
2023/10/22 06:45:59;;;;;;;2.88;1.83;;;9.60;90.80;;;;;;4976767;28;20041;-64
2023/10/22 06:48:24;;;;;;;2.63;1.50;;;9.60;91.00;;;;;;4973822;28;20030;-64
2023/10/22 06:50:50;;;;;;;1.80;1.48;;;9.60;91.00;;;;;;4972284;28;20096;-63
2023/10/22 06:53:15;;;;;;;2.70;1.48;;;9.70;91.20;;;;;;4981176;28;20038;-64
2023/10/22 06:55:42;;;;;;;1.67;1.30;;;9.60;91.40;;;;;;4983138;28;20069;-64
2023/10/22 06:58:07;;;;;;;2.70;1.20;;;9.70;91.60;;;;;;4980346;28;20053;-63
2023/10/22 07:00:33;;;;;;;3.65;0.90;;;9.80;91.70;;;;;;4980243;28;20042;-65
2023/10/22 07:02:58;;;;;;;1.73;1.00;;;9.90;91.90;;;;;;4974371;28;20049;-64
2023/10/22 07:05:25;;;;;;;1.05;0.80;;;10.00;92.00;;;;;;4980826;28;20132;-64
2023/10/22 07:07:51;;;;;;;1.38;0.80;;;10.00;92.10;;;;;;4979357;28;20601;-64
2023/10/22 07:10:16;;;;;;;1.20;0.68;;;10.10;92.20;;;;;;4977271;28;20041;-64
2023/10/22 07:12:42;;;;;;;2.28;0.73;;;10.20;92.20;;;;;;4968576;28;20609;-64
2023/10/22 07:15:09;;;;;;;1.85;0.57;;;10.30;92.20;;;;;;4976559;28;20046;-64
2023/10/22 07:17:34;;;;;;;1.85;0.68;;;10.40;92.10;;;;;;4981540;28;20422;-64
2023/10/22 07:20:00;;;;;;;1.13;0.80;;;10.40;92.10;;;;;;4981314;28;20786;-64
2023/10/22 07:22:26;;;;;;;1.45;0.70;;;10.50;92.10;;;;;;4980388;28;20034;-65
2023/10/22 07:24:51;;;;;;;2.53;0.65;;;10.60;92.10;;;;;;4978409;28;20034;-64
2023/10/22 07:27:17;;;;;;;0.90;0.65;;;10.70;92.00;;;;;;4975739;28;20045;-64
2023/10/22 07:29:42;;;;;;;1.50;0.90;;;10.70;92.00;;;;;;4972942;28;20042;-64
2023/10/22 07:32:10;;;;;;;2.40;0.90;;;10.80;92.00;;;;;;4978852;28;20457;-64
2023/10/22 07:34:36;;;;;;;2.15;0.68;;;10.90;92.00;;;;;;4978928;28;20049;-63
2023/10/22 07:37:01;;;;;;;2.95;1.50;;;10.90;91.90;;;;;;4974027;28;20042;-64
2023/10/22 07:39:27;;;;;;;3.10;1.67;;;11.00;92.00;;;;;;4982124;28;20510;-64
2023/10/22 07:41:52;;;;;;;1.85;1.40;;;11.10;92.00;;;;;;4985263;28;20523;-64
2023/10/22 07:44:18;;;;;;;1.58;1.00;;;11.10;91.90;;;;;;4980797;28;20019;-64
2023/10/22 07:46:44;;;;;;;2.08;1.02;;;11.20;91.90;;;;;;4982173;28;20093;-64
2023/10/22 07:49:11;;;;;;;3.95;1.20;;;11.20;91.80;;;;;;4980707;28;20113;-64
2023/10/22 07:51:36;;;;;;;1.65;1.10;;;11.30;91.80;;;;;;4972534;28;20050;-64
2023/10/22 07:54:02;;;;;;;1.40;1.08;;;11.30;91.80;;;;;;4978407;28;20118;-64
2023/10/22 07:56:28;;;;;;;1.73;1.08;;;11.40;91.70;;;;;;4979969;28;20065;-64
2023/10/22 07:58:54;;;;;;;2.38;1.13;;;11.40;91.80;;;;;;4974236;28;20060;-64
2023/10/22 08:01:19;;;;;;;4.78;1.17;;;11.50;91.80;;;;;;4977215;28;20092;-64
2023/10/22 08:03:47;;;;;;;2.45;1.35;;;11.50;91.70;;;;;;4980843;28;20049;-64
2023/10/22 08:06:12;;;;;;;3.08;1.02;;;11.50;91.70;;;;;;4983402;28;20042;-64
2023/10/22 08:08:38;;;;;;;2.35;1.00;;;11.60;91.70;;;;;;4978715;28;20046;-63
2023/10/22 08:11:05;;;;;;;3.08;1.02;;;11.70;91.80;;;;;;4977911;28;20282;-64
2023/10/22 08:13:31;;;;;;;1.27;0.60;;;11.70;91.80;;;;;;4979023;28;20030;-62
2023/10/22 08:15:56;;;;;;;1.77;0.57;;;11.80;91.70;;;;;;4984522;28;20045;-63
2023/10/22 08:18:22;;;;;;;2.13;0.60;;;11.90;91.50;;;;;;4981836;28;20044;-64
2023/10/22 08:20:48;;;;;;;1.42;0.57;;;11.90;91.40;;;;;;4977890;28;20050;-64
2023/10/22 08:23:14;;;;;;;1.48;0.60;;;12.00;91.20;;;;;;4978850;28;20035;-63
2023/10/22 08:25:39;;;;;;;1.48;0.80;;;12.10;91.20;;;;;;4979122;28;20042;-64
2023/10/22 08:28:05;;;;;;;3.53;0.60;;;12.20;91.20;;;;;;4981594;28;20149;-64
2023/10/22 08:30:30;;;;;;;2.72;0.60;;;12.30;91.20;;;;;;4978788;28;20038;-63
2023/10/22 08:32:56;;;;;;;1.80;0.50;;;12.40;91.00;;;;;;4980590;28;20041;-64
2023/10/22 08:35:23;;;;;;;1.80;0.75;;;12.50;90.80;;;;;;4982044;28;20073;-64
2023/10/22 08:37:48;;;;;;;1.85;0.50;;;12.60;90.70;;;;;;4978987;28;20176;-64
2023/10/22 08:40:14;;;;;;;2.65;0.65;;;12.70;90.50;;;;;;4980787;28;20121;-63
2023/10/22 08:42:40;;;;;;;0.90;0.50;;;12.70;90.40;;;;;;4979406;28;20062;-63
2023/10/22 08:45:09;;;;;;;1.80;0.60;;;12.80;90.30;;;;;;4984091;28;20062;-64
2023/10/22 08:47:35;;;;;;;3.00;0.60;;;12.90;90.20;;;;;;4984439;28;20751;-64
2023/10/22 08:50:02;;;;;;;1.38;0.50;;;13.00;90.00;;;;;;4984389;28;20064;-63
2023/10/22 08:52:28;;;;;;;2.28;0.30;;;13.10;89.90;;;;;;4984552;28;20549;-63
2023/10/22 08:54:54;;;;;;;3.25;0.70;;;13.20;89.50;;;;;;4985610;28;20196;-63
2023/10/22 08:57:21;;;;;;;1.55;0.50;;;13.20;88.70;;;;;;4983289;28;20042;-64
2023/10/22 08:59:48;;;;;;;3.80;0.95;;;13.30;88.50;;;;;;4984002;28;20038;-64
2023/10/22 09:02:21;;;;;;;1.58;0.50;;;13.40;88.60;;;;;;4978430;28;20633;-64
2023/10/22 09:04:47;;;;;;;1.10;0.47;;;13.50;88.00;;;;;;4977401;28;20089;-63
2023/10/22 09:07:12;;;;;;;0.63;0.40;;;13.60;88.10;;;;;;4979020;28;20038;-64
2023/10/22 09:09:39;;;;;;;1.25;0.50;;;13.60;87.30;;;;;;4979336;28;20045;-64
2023/10/22 09:12:08;;;;;;;1.27;0.43;;;13.70;87.00;;;;;;4983226;28;20038;-64
2023/10/22 09:14:34;;;;;;;2.00;0.50;;;13.70;86.70;;;;;;4979644;28;20038;-63
2023/10/22 09:17:15;;;;;;;1.92;0.47;;;13.80;86.70;;;;;;4965859;28;20156;-64
2023/10/22 09:19:41;;;;;;;1.83;0.60;;;13.90;85.20;;;;;;4969910;28;20125;-64
2023/10/22 09:22:19;;;;;;;1.83;0.40;;;14.00;85.90;;;;;;4980295;28;20121;-64
2023/10/22 09:24:51;;;;;;;1.38;0.40;;;14.00;85.70;;;;;;4977197;28;20069;-63
2023/10/22 09:27:28;;;;;;;1.27;0.30;;;14.10;84.50;;;;;;4985236;28;20036;-63
2023/10/22 09:29:54;;;;;;;1.42;0.30;;;14.20;84.10;;;;;;4978048;28;20042;-62
2023/10/22 09:32:20;;;;;;;5.20;0.60;;;14.30;84.80;;;;;;4980005;28;20494;-64
2023/10/22 09:34:46;;;;;;;1.35;0.40;;;14.30;84.00;;;;;;4981568;28;20046;-63
2023/10/22 09:37:12;;;;;;;1.10;0.50;;;14.40;83.70;;;;;;4977156;28;20069;-63
2023/10/22 09:39:39;;;;;;;1.70;0.50;;;14.50;82.70;;;;;;4976898;28;20067;-64
2023/10/22 09:42:06;;;;;;;1.90;0.30;;;14.50;83.10;;;;;;4983621;28;20039;-64
2023/10/22 09:44:33;;;;;;;1.45;0.43;;;14.60;82.90;;;;;;4982649;28;20062;-64
2023/10/22 09:47:03;;;;;;;1.77;0.50;;;14.60;82.60;;;;;;4984920;28;20039;-64
2023/10/22 09:49:38;;;;;;;2.97;0.50;;;14.60;81.80;;;;;;4984830;28;20023;-64
2023/10/22 09:52:08;;;;;;;1.45;0.38;;;14.70;81.90;;;;;;4987644;28;20417;-64
2023/10/22 09:54:40;;;;;;;1.25;0.30;;;14.80;80.30;;;;;;4984403;28;20034;-64
2023/10/22 09:57:13;;;;;;;1.48;0.40;;;14.80;79.40;;;;;;4986284;28;20049;-64
2023/10/22 09:59:40;;;;;;;1.15;0.38;;;14.90;79.70;;;;;;4986816;28;20054;-64
2023/10/22 10:02:17;;;;;;;2.58;0.50;;;14.90;80.50;;;;;;4989451;28;20046;-64
2023/10/22 10:04:43;;;;;;;1.77;0.40;;;15.00;78.90;;;;;;4989102;28;20226;-63
2023/10/22 10:07:09;;;;;;;1.05;0.30;;;15.00;79.90;;;;;;4989790;28;20137;-64
2023/10/22 10:09:36;;;;;;;1.55;0.40;;;15.00;79.30;;;;;;4989628;28;20117;-64
2023/10/22 10:12:12;;;;;;;2.00;0.30;;;15.10;79.10;;;;;;4988514;28;20597;-64
2023/10/22 10:14:48;;;;;;;2.53;0.30;;;15.10;78.50;;;;;;4989244;28;20510;-64
2023/10/22 10:17:17;;;;;;;1.35;0.50;;;15.20;77.50;;;;;;4989752;28;20088;-64
2023/10/22 10:19:43;;;;;;;1.65;0.30;;;15.20;78.30;;;;;;4990391;28;20280;-64
2023/10/22 10:22:09;;;;;;;1.25;0.30;;;15.20;78.50;;;;;;4989290;28;20043;-64
2023/10/22 10:24:35;;;;;;;1.60;0.38;;;15.30;77.90;;;;;;4987662;28;20417;-64
2023/10/22 10:27:00;;;;;;;1.20;0.40;;;15.30;77.30;;;;;;4989427;28;20037;-64
2023/10/22 10:29:28;;;;;;;2.60;0.40;;;15.40;78.30;;;;;;4989342;28;20039;-63
2023/10/22 10:31:57;;;;;;;2.60;0.70;;;15.40;78.40;;;;;;4989592;28;20034;-64
2023/10/22 10:34:36;;;;;;;1.33;0.30;;;15.40;76.50;;;;;;4988068;28;20433;-64
2023/10/22 10:37:21;;;;;;;1.83;0.40;;;15.50;75.80;;;;;;4989291;28;20039;-64
2023/10/22 10:39:53;;;;;;;1.70;0.32;;;15.50;75.40;;;;;;4989789;28;20154;-62
2023/10/22 10:42:28;;;;;;;1.90;0.43;;;15.50;75.70;;;;;;4989583;28;20089;-64
2023/10/22 10:44:57;;;;;;;;;;;15.60;73.50;;;;;;4990032;28;20034;-63
2023/10/22 10:47:22;;;;;;;1.10;0.25;;;15.60;73.20;;;;;;4989145;28;19920;-64
2023/10/22 10:50:07;;;;;;;0.73;0.40;;;15.60;74.60;;;;;;4985323;28;20426;-63
2023/10/22 10:52:56;;;;;;;0.40;0.30;;;15.50;73.30;;;;;;4986191;28;20038;-63
2023/10/22 10:55:22;;;;;;;1.50;0.28;;;15.50;74.50;;;;;;4981958;28;20096;-64
2023/10/22 10:57:51;;;;;;;1.65;0.40;;;15.50;74.40;;;;;;4985460;28;20046;-63
2023/10/22 11:00:21;;;;;;;0.73;0.32;;;15.50;74.70;;;;;;4982751;28;20081;-63
2023/10/22 11:02:49;;;;;;;2.33;0.30;;;15.50;75.00;;;;;;4985085;28;20042;-64
2023/10/22 11:05:15;;;;;;;0.98;0.40;;;15.50;75.10;;;;;;4987212;28;20121;-63
2023/10/22 11:07:43;;;;;;;1.33;0.32;;;15.50;74.90;;;;;;4985519;28;20124;-63
2023/10/22 11:10:14;;;;;;;1.50;0.30;;;15.50;75.30;;;;;;4985419;28;20423;-63
2023/10/22 11:12:40;;;;;;;1.33;0.40;;;15.60;75.60;;;;;;4985107;28;20453;-63
2023/10/22 11:15:09;;;;;;;1.17;0.30;;;15.60;75.60;;;;;;4985673;28;20498;-63
2023/10/22 11:17:35;;;;;;;1.08;0.40;;;15.70;75.30;;;;;;4982089;28;20042;-61
2023/10/22 11:20:04;;;;;;;1.40;0.30;;;15.70;74.60;;;;;;4985856;28;20042;-64
2023/10/22 11:22:30;;;;;;;0.65;0.20;;;15.70;74.80;;;;;;4984446;28;20046;-63
2023/10/22 11:24:57;;;;;;;0.85;0.30;;;15.70;73.50;;;;;;4984328;28;20030;-63
2023/10/22 11:27:23;;;;;;;2.00;0.20;;;15.80;74.20;;;;;;4985313;28;20045;-63
2023/10/22 11:29:49;;;;;;;1.80;0.30;;;15.80;73.10;;;;;;4986607;28;20034;-63
2023/10/22 11:32:20;;;;;;;1.58;0.10;;;15.80;73.20;;;;;;4986808;28;20056;-63
2023/10/22 11:34:58;;;;;;;1.23;0.30;;;15.80;73.80;;;;;;4983808;28;20347;-65
2023/10/22 11:37:39;;;;;;;1.73;0.20;;;15.80;72.60;;;;;;4985601;28;20522;-63
2023/10/22 11:40:29;;;;;;;1.55;0.38;;;15.80;72.50;;;;;;4984802;28;20461;-61
2023/10/22 11:43:05;;;;;;;1.30;0.30;;;15.90;70.70;;;;;;4984935;28;20042;-63
2023/10/22 11:45:34;;;;;;;2.00;0.25;;;15.90;70.80;;;;;;4980272;28;20077;-64
2023/10/22 11:48:13;;;;;;;0.43;0.10;;;15.90;72.00;;;;;;4985923;28;20043;-62
2023/10/22 11:50:43;;;;;;;7.85;0.30;;;16.00;71.90;;;;;;4986165;28;20525;-62
2023/10/22 11:53:09;;;;;;;0.95;0.30;;;16.00;73.00;;;;;;4986740;28;20085;-63
2023/10/22 11:55:34;;;;;;;0.85;0.20;;;16.10;73.40;;;;;;4986867;28;20414;-64
2023/10/22 11:58:00;;;;;;;1.63;0.20;;;16.20;72.90;;;;;;4987310;28;20030;-62
2023/10/22 12:00:25;;;;;;;1.42;0.20;;;16.20;72.10;;;;;;4986507;28;20171;-63
2023/10/22 12:02:51;;;;;;;1.33;0.60;;;16.30;71.80;;;;;;4986798;28;20046;-62
2023/10/22 12:05:17;;;;;;;1.17;0.30;;;16.40;70.90;;;;;;4987021;28;20050;-64
2023/10/22 12:07:42;;;;;;;1.50;0.30;;;16.40;70.90;;;;;;4987225;28;20545;-63
2023/10/22 12:10:10;;;;;;;0.50;0.20;;;16.50;71.30;;;;;;4984435;28;20064;-64
2023/10/22 12:12:35;;;;;;;0.88;0.40;;;16.50;71.10;;;;;;4982362;28;20022;-64
2023/10/22 12:15:01;;;;;;;0.95;0.30;;;16.50;70.80;;;;;;4986580;28;20044;-63
2023/10/22 12:17:26;;;;;;;1.00;0.30;;;16.60;71.10;;;;;;4984359;28;20121;-64
2023/10/22 12:19:52;;;;;;;0.90;0.30;;;16.60;70.70;;;;;;4984074;28;20113;-63
2023/10/22 12:22:19;;;;;;;1.05;0.20;;;16.70;70.40;;;;;;4985954;28;20042;-64
2023/10/22 12:24:45;;;;;;;1.92;0.35;;;16.70;70.70;;;;;;4984758;28;20046;-64
2023/10/22 12:27:10;;;;;;;1.02;0.20;;;16.80;70.40;;;;;;4986265;28;20034;-62
2023/10/22 12:29:36;;;;;;;1.55;0.20;;;16.80;69.60;;;;;;4985387;28;20035;-64
2023/10/22 12:32:04;;;;;;;2.05;0.50;;;16.80;69.90;;;;;;4984439;28;20441;-64
2023/10/22 12:34:29;;;;;;;2.70;0.52;;;16.80;69.70;;;;;;4985081;28;20050;-64
2023/10/22 12:36:55;;;;;;;1.02;0.20;;;16.90;69.80;;;;;;4985465;28;20335;-64
2023/10/22 12:39:21;;;;;;;1.80;0.43;;;16.90;69.50;;;;;;4983241;28;20088;-64
2023/10/22 12:41:46;;;;;;;0.90;0.32;;;16.90;69.70;;;;;;4983763;28;20030;-63
2023/10/22 12:44:12;;;;;;;1.20;0.30;;;17.00;69.20;;;;;;4982918;28;20092;-63
2023/10/22 12:46:38;;;;;;;0.90;0.30;;;17.00;69.30;;;;;;4982869;28;20243;-64